Terminal Aerodrome Forecast
Issued by NWS Sterling, VA

Current Version | Previous Version | Text Only | Print | Product List | Glossary Off
Versions: 1 2 3 4 5 6 7 8 9 10 11 12 13 14 15

277
FTUS41 KLWX 262108 AAA
TAFMRB
TAF AMD
KMRB 262108Z 2621/2718 19006KT P6SM VCTS BKN070CB
      TEMPO 2621/2623 3SM -TSRA SCT025 BKN060CB
     FM270000 20004KT P6SM SCT060
     FM270300 VRB03KT P6SM BKN060
     FM270600 VRB03KT 5SM BR BKN060
     FM271200 00000KT P6SM SCT120=

USA.gov is the U.S. government's official web portal to all federal, state and local government web resources and services.